createdAt,value
2022-08-27T00:00:43.409Z,17.24
2022-08-27T00:03:13.343Z,17.22
2022-08-27T00:05:48.904Z,17.36
2022-08-27T00:08:20.374Z,17.43
2022-08-27T00:10:50.628Z,17.43
2022-08-27T00:13:20.703Z,17.42
2022-08-27T00:15:50.201Z,17.38
2022-08-27T00:18:22.780Z,17.42
2022-08-27T00:20:52.447Z,17.43
2022-08-27T00:23:22.675Z,17.41
2022-08-27T00:25:53.855Z,17.45
2022-08-27T00:28:28.192Z,17.46
2022-08-27T00:30:57.767Z,17.49
2022-08-27T00:33:27.303Z,17.57
2022-08-27T00:35:57.031Z,17.63
2022-08-27T00:38:26.913Z,17.70
2022-08-27T00:40:57.579Z,17.74
2022-08-27T00:43:29.408Z,17.74
2022-08-27T00:46:11.825Z,17.73
2022-08-27T00:48:42.372Z,17.74
2022-08-27T00:51:11.674Z,17.78
2022-08-27T00:53:42.082Z,17.69
2022-08-27T00:56:21.615Z,17.58
2022-08-27T00:58:55.208Z,17.47
2022-08-27T01:01:29.427Z,17.40
2022-08-27T01:04:06.342Z,17.35
2022-08-27T01:06:39.165Z,17.27
2022-08-27T01:09:16.435Z,17.23
2022-08-27T01:11:48.333Z,17.22
2022-08-27T01:14:20.183Z,17.27
2022-08-27T01:16:57.057Z,17.30
2022-08-27T01:19:45.730Z,17.29
2022-08-27T01:22:39.156Z,17.27
2022-08-27T01:25:15.401Z,17.22
2022-08-27T01:27:48.910Z,17.19
2022-08-27T01:30:21.894Z,17.17
2022-08-27T01:32:55.579Z,17.17
2022-08-27T01:35:25.803Z,17.20
2022-08-27T01:37:57.208Z,17.19
2022-08-27T01:40:27.087Z,17.12
2022-08-27T01:43:02.596Z,17.10
2022-08-27T01:45:47.137Z,17.04
2022-08-27T01:48:21.711Z,17.00
2022-08-27T01:50:51.782Z,16.95
2022-08-27T01:53:26.271Z,16.90
2022-08-27T01:55:57.244Z,16.84
2022-08-27T01:58:30.263Z,16.81
2022-08-27T02:01:05.480Z,16.77
2022-08-27T02:03:37.554Z,16.75
2022-08-27T02:06:12.687Z,16.72
2022-08-27T02:08:42.701Z,16.68
2022-08-27T02:11:13.529Z,16.65
2022-08-27T02:13:43.531Z,16.61
2022-08-27T02:16:14.794Z,16.56
2022-08-27T02:18:43.926Z,16.54
2022-08-27T02:21:15.115Z,16.50
2022-08-27T02:23:48.298Z,16.44
2022-08-27T02:26:17.511Z,16.40
2022-08-27T02:28:49.918Z,16.37
2022-08-27T02:31:20.344Z,16.32
2022-08-27T02:33:53.037Z,16.24
2022-08-27T02:36:24.261Z,16.24
2022-08-27T02:38:53.567Z,16.24
2022-08-27T02:41:24.265Z,16.24
2022-08-27T02:43:54.104Z,16.25
2022-08-27T02:46:25.572Z,16.26
2022-08-27T02:48:58.619Z,16.32
2022-08-27T02:51:27.840Z,16.30
2022-08-27T02:53:57.870Z,16.27
2022-08-27T02:56:28.716Z,16.26
2022-08-27T02:59:00.152Z,16.23
2022-08-27T03:01:29.930Z,16.21
2022-08-27T03:03:59.419Z,16.17
2022-08-27T03:06:28.993Z,16.13
2022-08-27T03:08:58.467Z,16.07
2022-08-27T03:11:28.883Z,16.02
2022-08-27T03:13:59.749Z,16.05
2022-08-27T03:16:29.935Z,16.07
2022-08-27T03:19:00.271Z,16.07
2022-08-27T03:21:30.154Z,16.11
2022-08-27T03:24:11.084Z,16.15
2022-08-27T03:26:52.936Z,16.17
2022-08-27T03:29:24.379Z,16.18
2022-08-27T03:31:54.755Z,16.22
2022-08-27T03:34:24.081Z,16.24
2022-08-27T03:36:54.664Z,16.26
2022-08-27T03:39:25.498Z,16.26
2022-08-27T03:41:58.218Z,16.25
2022-08-27T03:44:29.376Z,16.22
2022-08-27T03:47:01.167Z,16.21
2022-08-27T03:49:30.291Z,16.20
2022-08-27T03:52:03.181Z,16.19
2022-08-27T03:54:36.247Z,16.16
2022-08-27T03:57:06.992Z,16.18
2022-08-27T03:59:38.465Z,16.16
2022-08-27T04:02:07.910Z,16.16
2022-08-27T04:04:40.447Z,16.20
2022-08-27T04:07:12.754Z,16.24
2022-08-27T04:09:42.342Z,16.35
2022-08-27T04:12:15.531Z,16.49
2022-08-27T04:14:45.546Z,16.69
2022-08-27T04:17:14.816Z,16.89
2022-08-27T04:19:46.781Z,17.07
2022-08-27T04:22:21.430Z,17.18
2022-08-27T04:24:54.623Z,17.28
2022-08-27T04:27:27.259Z,17.36
2022-08-27T04:30:02.507Z,17.46
2022-08-27T04:32:38.765Z,17.60
2022-08-27T04:35:09.263Z,17.74
2022-08-27T04:37:46.566Z,17.90
2022-08-27T04:40:19.299Z,18.04
2022-08-27T04:42:55.399Z,18.20
2022-08-27T04:45:28.524Z,18.46
2022-08-27T04:48:00.862Z,18.79
2022-08-27T04:50:32.103Z,19.11
2022-08-27T04:53:05.165Z,19.40
2022-08-27T04:55:52.563Z,19.75
2022-08-27T04:58:27.038Z,20.17
2022-08-27T05:01:03.346Z,20.58
2022-08-27T05:03:46.698Z,20.96
2022-08-27T05:06:20.452Z,21.33
2022-08-27T05:08:53.222Z,21.72
2022-08-27T05:11:31.049Z,22.03
2022-08-27T05:14:13.376Z,22.37
2022-08-27T14:56:01.885Z,29.37
2022-08-27T14:58:36.488Z,29.38
2022-08-27T15:01:11.664Z,29.34
2022-08-27T15:03:53.192Z,29.30
2022-08-27T15:06:27.432Z,29.26
2022-08-27T15:09:02.105Z,29.23
2022-08-27T15:11:38.253Z,29.21
2022-08-27T15:14:16.608Z,29.16
2022-08-27T15:16:51.597Z,29.10
2022-08-27T15:19:23.037Z,29.06
2022-08-27T15:21:59.609Z,28.99
2022-08-27T15:24:43.110Z,28.93
2022-08-27T15:27:19.614Z,28.87
2022-08-27T15:32:51.832Z,28.73
2022-08-27T15:35:26.637Z,28.70
2022-08-27T15:38:00.628Z,28.67
2022-08-27T15:40:36.313Z,28.60
2022-08-27T15:43:11.342Z,28.52
2022-08-27T15:45:40.356Z,28.46
2022-08-27T15:48:12.902Z,28.37
2022-08-27T15:50:43.234Z,28.33
2022-08-27T15:53:13.269Z,28.30
2022-08-27T15:55:46.214Z,28.18
2022-08-27T15:58:17.427Z,28.08
2022-08-27T16:00:47.468Z,28.02
2022-08-27T16:03:33.206Z,27.95
2022-08-27T16:06:06.906Z,27.87
2022-08-27T16:08:41.948Z,27.80
2022-08-27T16:11:14.402Z,27.75
2022-08-27T16:13:48.155Z,27.70
2022-08-27T16:16:28.468Z,27.65
2022-08-27T16:19:01.032Z,27.62
2022-08-27T16:21:38.599Z,27.59
2022-08-27T16:24:13.814Z,27.53
2022-08-27T16:26:49.049Z,27.48
2022-08-27T16:29:18.234Z,27.43
2022-08-27T16:31:49.800Z,27.37
2022-08-27T16:34:30.314Z,27.31
2022-08-27T16:37:02.436Z,27.26
2022-08-27T16:39:37.490Z,27.19
2022-08-27T16:42:15.844Z,27.13
2022-08-27T16:44:52.760Z,27.06
2022-08-27T16:47:26.969Z,26.98
2022-08-27T16:50:24.144Z,26.88
2022-08-27T16:53:10.045Z,26.74
2022-08-27T16:55:42.594Z,26.64
2022-08-27T16:58:26.308Z,26.53
2022-08-27T17:01:02.454Z,26.39
2022-08-27T17:04:07.694Z,26.24
2022-08-27T17:06:42.369Z,26.10
2022-08-27T17:09:16.134Z,25.99
2022-08-27T17:11:55.768Z,25.88
2022-08-27T17:14:26.904Z,25.76
2022-08-27T17:17:02.744Z,25.63
2022-08-27T17:19:37.014Z,25.54
2022-08-27T17:22:10.670Z,25.40
2022-08-27T17:24:42.057Z,25.22
2022-08-27T17:27:13.586Z,25.09
2022-08-27T17:29:45.874Z,24.90
2022-08-27T17:32:15.355Z,24.72
2022-08-27T17:34:45.342Z,24.59
2022-08-27T17:37:14.689Z,24.42
2022-08-27T17:39:51.351Z,24.31
2022-08-27T17:42:20.443Z,24.23
2022-08-27T17:44:51.706Z,24.18
2022-08-27T17:47:26.273Z,24.06
2022-08-27T17:49:58.482Z,23.98
2022-08-27T17:52:28.351Z,23.86
2022-08-27T17:54:58.900Z,23.81
2022-08-27T17:57:40.946Z,23.75
2022-08-27T18:00:19.351Z,23.67
2022-08-27T18:02:54.620Z,23.58
2022-08-27T18:05:28.685Z,23.48
2022-08-27T18:07:59.130Z,23.41
2022-08-27T18:10:31.369Z,23.32
2022-08-27T18:13:01.205Z,23.20
2022-08-27T18:15:47.233Z,23.04
2022-08-27T18:18:28.678Z,22.88
2022-08-27T18:21:00.101Z,22.77
2022-08-27T18:23:33.368Z,22.69
2022-08-27T18:26:18.986Z,22.61
2022-08-27T18:28:55.476Z,22.51
2022-08-27T18:31:34.473Z,22.41
2022-08-27T18:34:06.970Z,22.32
2022-08-27T18:36:43.136Z,22.18
2022-08-27T18:39:11.869Z,22.02
2022-08-27T18:41:49.145Z,21.97
2022-08-27T18:44:20.805Z,21.88
2022-08-27T18:46:52.548Z,21.81
2022-08-27T18:49:22.369Z,21.69
2022-08-27T18:51:53.292Z,21.58
2022-08-27T18:54:23.488Z,21.50
2022-08-27T18:56:54.410Z,21.45
2022-08-27T18:59:27.750Z,21.43
2022-08-27T19:01:57.302Z,21.40
2022-08-27T19:04:31.066Z,21.38
2022-08-27T19:07:04.898Z,21.36
2022-08-27T19:09:39.084Z,21.34
2022-08-27T19:12:08.478Z,21.30
2022-08-27T19:14:37.412Z,21.28
2022-08-27T19:17:06.989Z,21.23
2022-08-27T19:19:38.354Z,21.22
2022-08-27T19:22:09.002Z,21.19
2022-08-27T19:24:41.360Z,21.17
2022-08-27T19:27:21.864Z,21.18
2022-08-27T19:29:56.463Z,21.15
2022-08-27T19:32:25.552Z,21.15
2022-08-27T19:34:54.651Z,21.17
2022-08-27T19:37:29.314Z,21.18
2022-08-27T19:39:58.324Z,21.18
2022-08-27T19:42:29.213Z,21.17
2022-08-27T19:45:04.215Z,21.17
2022-08-27T19:47:43.277Z,21.17
2022-08-27T19:50:16.358Z,21.16
2022-08-27T19:52:48.162Z,21.15
2022-08-27T19:55:21.834Z,21.12
2022-08-27T19:57:53.427Z,21.11
2022-08-27T20:00:27.679Z,21.11
2022-08-27T20:02:58.599Z,21.08
2022-08-27T20:05:31.427Z,21.08
2022-08-27T20:08:00.507Z,21.08
2022-08-27T20:10:36.980Z,21.08
2022-08-27T20:13:10.955Z,21.08
2022-08-27T20:15:43.405Z,21.07
2022-08-27T20:18:20.852Z,21.06
2022-08-27T20:20:50.557Z,21.05
2022-08-27T20:23:25.935Z,21.02
2022-08-27T20:25:59.157Z,21.02
2022-08-27T20:28:39.356Z,20.99
2022-08-27T20:31:11.431Z,21.00
2022-08-27T20:33:42.056Z,20.99
2022-08-27T20:36:13.467Z,20.98
2022-08-27T20:38:43.526Z,20.97
2022-08-27T20:41:16.710Z,20.97
2022-08-27T20:43:46.099Z,20.96
2022-08-27T20:46:30.910Z,20.96
2022-08-27T20:49:02.109Z,20.92
2022-08-27T20:51:51.587Z,20.92
2022-08-27T20:54:27.965Z,20.88
2022-08-27T20:57:04.653Z,20.86
2022-08-27T20:59:58.286Z,20.86
2022-08-27T21:02:33.015Z,20.82
2022-08-27T21:05:09.097Z,20.81
2022-08-27T21:07:37.935Z,20.77
2022-08-27T21:10:15.753Z,20.79
2022-08-27T21:12:49.521Z,20.78
2022-08-27T21:15:18.556Z,20.76
2022-08-27T21:17:51.156Z,20.74
2022-08-27T21:20:23.054Z,20.72
2022-08-27T21:22:57.881Z,20.70
2022-08-27T21:25:31.045Z,20.67
2022-08-27T21:28:02.544Z,20.66
2022-08-27T21:30:33.424Z,20.63
2022-08-27T21:33:07.032Z,20.60
2022-08-27T21:35:35.839Z,20.54
2022-08-27T21:38:07.077Z,20.50
2022-08-27T21:40:36.178Z,20.47
2022-08-27T21:43:10.470Z,20.43
2022-08-27T21:45:42.978Z,20.42
2022-08-27T21:48:12.550Z,20.40
2022-08-27T21:50:41.974Z,20.38
2022-08-27T21:53:11.382Z,20.36
2022-08-27T21:55:47.358Z,20.33
2022-08-27T21:58:17.351Z,20.29
2022-08-27T22:00:51.003Z,20.23
2022-08-27T22:03:24.200Z,20.15
2022-08-27T22:05:55.177Z,20.12
2022-08-27T22:08:28.683Z,20.10
2022-08-27T22:10:58.942Z,20.05
2022-08-27T22:13:27.844Z,20.01
2022-08-27T22:15:57.912Z,19.96
2022-08-27T22:18:30.707Z,19.96
2022-08-27T22:21:01.177Z,19.95
2022-08-27T22:23:29.767Z,19.94
2022-08-27T22:26:01.666Z,19.97
2022-08-27T22:28:30.687Z,19.97
2022-08-27T22:31:00.645Z,19.96
2022-08-27T22:33:29.813Z,19.96
2022-08-27T22:36:01.607Z,19.95
2022-08-27T22:38:31.146Z,19.93
2022-08-27T22:41:02.031Z,19.90
2022-08-27T22:43:37.458Z,19.88
2022-08-27T22:46:12.849Z,19.85
2022-08-27T22:48:43.515Z,19.82
2022-08-27T22:51:15.742Z,19.81
2022-08-27T22:53:43.863Z,19.83
2022-08-27T22:56:12.862Z,19.85
2022-08-27T22:58:45.903Z,19.85
2022-08-27T23:01:23.516Z,19.81
2022-08-27T23:03:54.078Z,19.79
2022-08-27T23:06:27.014Z,19.77
2022-08-27T23:08:56.496Z,19.78
2022-08-27T23:11:26.294Z,19.80
2022-08-27T23:13:59.930Z,19.81
2022-08-27T23:16:31.896Z,19.80
2022-08-27T23:19:02.960Z,19.79
2022-08-27T23:21:32.569Z,19.80
2022-08-27T23:24:02.785Z,19.78
2022-08-27T23:26:51.933Z,19.77
2022-08-27T23:29:24.960Z,19.75
2022-08-27T23:32:02.628Z,19.72
2022-08-27T23:34:33.879Z,19.69
2022-08-27T23:37:02.467Z,19.66
2022-08-27T23:39:33.604Z,19.65
2022-08-27T23:42:05.956Z,19.63
2022-08-27T23:44:36.399Z,19.58
2022-08-27T23:47:07.290Z,19.54
2022-08-27T23:49:39.070Z,19.51
2022-08-27T23:52:10.992Z,19.48
2022-08-27T23:54:40.740Z,19.48
2022-08-27T23:57:14.138Z,19.47
2022-08-27T23:59:43.717Z,19.46
